Pugwash, Canada
Current Conditions -  °F | °C
As of 6:00 AM on Sunday 25 Jan 2015 (Local Time) from CYYG Reporting Station
Snow Showers Snow Showers  
Wind Chill: 19°   Ceiling: 1200
Heat Index: 32°   Visibility: 5mi
Dew Point: 28°   Wind: 24mph
Humidity: 87%   Direction: 290°WNW
Pressure: 28.69"   Gusts: 45mph
Location:  45.85°N, 63.65°W
Report Text: CYYG 251000Z 29021G39KT 5SM -SHSN BKN012 OVC021 M00/M02 A2869 RMK SC6SC2 PRESRR SLP719
Loading
Personal Weather Stations






























Interactive Weather Map New forecast layout! Learn more

10-Day Weather Forecast

Advertisements
Track Severe Weather on mobile